Terminal Aerodrome Forecast
Issued by NWS

Home | Current Version | Previous Version | Text Only | Print | Product List | Glossary On
Versions: 1 2 3 4 5 6 7 8 9 10 11 12 13
000
FTUS45 KRIW 242320
TAFCPR
TAF
KCPR 242320Z 2500/2524 26022G32KT P6SM SCT090
     FM250200 25014G22KT P6SM VCSH SCT060 BKN090
     FM250500 26010KT P6SM VCTS BKN060CB
     FM250900 36008KT P6SM VCSH BKN060
     FM251600 29011KT P6SM SCT060
     FM251900 30014G25KT P6SM FEW080=

USA.gov is the U.S. government's official web portal to all federal, state and local government web resources and services.